createdAt,value
2018-04-27T00:01:57.022Z,85.90
2018-04-27T00:04:24.520Z,85.90
2018-04-27T00:06:52.072Z,86.20
2018-04-27T00:09:19.682Z,86.20
2018-04-27T00:11:47.810Z,86.60
2018-04-27T00:14:15.449Z,86.70
2018-04-27T00:16:43.120Z,86.30
2018-04-27T00:19:10.625Z,86.10
2018-04-27T00:21:38.145Z,86.00
2018-04-27T00:24:05.642Z,86.00
2018-04-27T00:26:33.174Z,86.30
2018-04-27T00:29:00.668Z,86.20
2018-04-27T00:31:28.572Z,86.20
2018-04-27T00:33:56.087Z,86.20
2018-04-27T00:36:23.765Z,86.20
2018-04-27T00:38:51.288Z,86.10
2018-04-27T00:41:18.777Z,86.20
2018-04-27T00:43:46.293Z,86.20
2018-04-27T00:46:13.793Z,86.10
2018-04-27T00:48:41.313Z,86.10
2018-04-27T00:51:09.211Z,86.10
2018-04-27T00:53:36.742Z,86.20
2018-04-27T00:56:04.245Z,86.50
2018-04-27T00:58:31.889Z,86.60
2018-04-27T01:00:59.393Z,87.10
2018-04-27T01:03:26.909Z,86.70
2018-04-27T01:05:54.457Z,86.60
2018-04-27T01:08:21.972Z,86.50
2018-04-27T01:10:49.982Z,86.50
2018-04-27T01:13:17.500Z,86.50
2018-04-27T01:15:45.388Z,86.60
2018-04-27T01:18:12.921Z,86.60
2018-04-27T01:20:40.422Z,86.50
2018-04-27T01:23:07.941Z,86.30
2018-04-27T01:25:35.921Z,86.50
2018-04-27T01:28:03.462Z,86.50
2018-04-27T01:30:31.441Z,86.50
2018-04-27T01:32:58.945Z,86.50
2018-04-27T01:35:26.549Z,86.50
2018-04-27T01:37:54.042Z,86.30
2018-04-27T01:40:21.573Z,86.50
2018-04-27T01:42:49.066Z,86.30
2018-04-27T01:45:16.801Z,86.30
2018-04-27T01:47:44.313Z,86.30
2018-04-27T01:50:12.225Z,86.20
2018-04-27T01:52:39.718Z,86.20
2018-04-27T01:55:07.413Z,86.30
2018-04-27T01:57:34.905Z,86.30
2018-04-27T02:00:02.543Z,86.70
2018-04-27T02:02:30.766Z,86.90
2018-04-27T02:04:58.293Z,87.00
2018-04-27T02:07:25.785Z,87.00
2018-04-27T02:09:53.696Z,87.10
2018-04-27T02:12:21.193Z,87.00
2018-04-27T02:14:48.741Z,87.00
2018-04-27T02:17:16.236Z,87.00
2018-04-27T02:19:43.801Z,86.90
2018-04-27T02:22:11.321Z,86.90
2018-04-27T02:24:38.822Z,87.00
2018-04-27T02:27:06.369Z,86.90
2018-04-27T02:29:33.961Z,86.90
2018-04-27T02:32:01.481Z,87.30
2018-04-27T02:34:28.990Z,87.80
2018-04-27T02:36:56.512Z,88.00
2018-04-27T02:39:25.071Z,88.00
2018-04-27T02:41:52.721Z,87.60
2018-04-27T02:44:20.214Z,87.50
2018-04-27T02:46:47.737Z,87.40
2018-04-27T02:49:15.245Z,87.40
2018-04-27T02:55:03.634Z,87.50
2018-04-27T02:57:31.153Z,87.60
2018-04-27T02:59:58.645Z,87.60
2018-04-27T03:02:26.625Z,87.20
2018-04-27T03:04:54.121Z,87.20
2018-04-27T03:07:21.642Z,87.10
2018-04-27T03:09:49.133Z,87.10
2018-04-27T03:12:16.658Z,87.20
2018-04-27T03:14:44.317Z,87.20
2018-04-27T03:17:11.845Z,87.10
2018-04-27T03:19:39.738Z,87.20
2018-04-27T03:22:07.264Z,87.20
2018-04-27T03:24:35.163Z,87.10
2018-04-27T03:27:02.693Z,87.10
2018-04-27T03:29:30.598Z,87.30
2018-04-27T03:31:58.126Z,87.30
2018-04-27T03:34:25.683Z,87.30
2018-04-27T03:36:53.176Z,87.30
2018-04-27T03:39:20.701Z,87.30
2018-04-27T03:41:48.205Z,87.20
2018-04-27T03:44:16.132Z,87.10
2018-04-27T03:46:43.628Z,87.10
2018-04-27T03:49:11.145Z,86.90
2018-04-27T03:51:38.744Z,86.90
2018-04-27T03:54:06.261Z,87.50
2018-04-27T03:56:33.758Z,88.00
2018-04-27T03:59:01.666Z,88.50
2018-04-27T04:01:40.855Z,88.50
2018-04-27T04:04:20.433Z,88.40
2018-04-27T04:06:48.121Z,88.00
2018-04-27T04:09:15.648Z,87.70
2018-04-27T04:11:43.141Z,87.40
2018-04-27T04:14:10.730Z,87.20
2018-04-27T04:16:38.728Z,87.10
2018-04-27T04:19:06.261Z,87.10
2018-04-27T04:21:33.762Z,86.90
2018-04-27T04:24:01.279Z,87.40
2018-04-27T04:26:28.777Z,87.80
2018-04-27T04:28:56.302Z,88.00
2018-04-27T04:31:23.820Z,88.20
2018-04-27T04:33:51.721Z,88.50
2018-04-27T04:36:19.230Z,88.50
2018-04-27T04:38:46.740Z,88.40
2018-04-27T04:41:14.265Z,88.30
2018-04-27T04:43:41.760Z,88.00
2018-04-27T04:46:09.288Z,88.00
2018-04-27T04:48:36.843Z,87.60
2018-04-27T04:51:04.377Z,87.60
2018-04-27T04:53:32.279Z,88.10
2018-04-27T04:55:59.809Z,88.10
2018-04-27T04:58:27.307Z,88.50
2018-04-27T05:00:54.825Z,88.90
2018-04-27T05:03:22.345Z,89.00
2018-04-27T05:05:49.875Z,89.10
2018-04-27T05:08:17.396Z,89.50
2018-04-27T05:10:45.014Z,89.40
2018-04-27T05:13:12.512Z,89.00
2018-04-27T05:15:40.001Z,89.00
2018-04-27T05:18:12.448Z,89.10
2018-04-27T05:20:40.106Z,89.10
2018-04-27T05:23:07.631Z,89.20
2018-04-27T05:25:35.534Z,89.00
2018-04-27T05:28:03.086Z,89.10
2018-04-27T05:30:30.592Z,89.00
2018-04-27T05:33:03.962Z,89.00
2018-04-27T05:35:31.469Z,88.80
2018-04-27T05:37:59.001Z,88.80
2018-04-27T05:40:26.501Z,88.80
2018-04-27T05:42:54.151Z,88.80
2018-04-27T05:45:21.643Z,88.60
2018-04-27T05:47:49.170Z,88.50
2018-04-27T05:50:16.727Z,88.50
2018-04-27T05:52:44.253Z,88.20
2018-04-27T05:55:12.158Z,87.40
2018-04-27T05:57:39.685Z,87.40
2018-04-27T06:00:07.193Z,87.10
2018-04-27T06:02:34.702Z,86.30
2018-04-27T06:05:02.204Z,85.80
2018-04-27T06:07:29.733Z,84.80
2018-04-27T06:09:57.249Z,85.10
2018-04-27T06:12:25.152Z,81.60
2018-04-27T06:14:52.684Z,81.60
2018-04-27T06:17:20.184Z,79.00
2018-04-27T06:19:47.701Z,77.60
2018-04-27T06:22:15.264Z,78.60
2018-04-27T06:24:42.757Z,76.00
2018-04-27T06:27:10.294Z,74.80
2018-04-27T06:29:37.845Z,75.40
2018-04-27T06:32:05.359Z,74.40
2018-04-27T06:34:32.881Z,73.30
2018-04-27T06:37:00.382Z,73.30
2018-04-27T06:39:27.998Z,72.00
2018-04-27T06:41:55.458Z,71.30
2018-04-27T06:44:23.058Z,70.00
2018-04-27T06:46:50.681Z,69.70
2018-04-27T06:49:18.375Z,70.50
2018-04-27T06:51:45.878Z,71.20
2018-04-27T06:54:13.421Z,70.20
2018-04-27T06:56:40.917Z,70.10
2018-04-27T06:59:08.483Z,69.90
2018-04-27T07:01:35.989Z,68.90
2018-04-27T07:04:03.521Z,68.60
2018-04-27T07:06:31.054Z,69.00
2018-04-27T07:08:58.616Z,66.80
2018-04-27T07:11:26.145Z,68.50
2018-04-27T07:13:54.263Z,67.80
2018-04-27T07:16:21.808Z,67.70
2018-04-27T07:18:49.304Z,68.00
2018-04-27T07:21:16.821Z,68.40
2018-04-27T07:23:44.320Z,69.50
2018-04-27T07:26:11.877Z,68.60
2018-04-27T07:28:39.482Z,68.50
2018-04-27T07:31:07.026Z,68.50
2018-04-27T07:33:34.552Z,68.00
2018-04-27T07:36:02.081Z,68.60
2018-04-27T07:38:29.586Z,67.00
2018-04-27T07:40:57.170Z,67.50
2018-04-27T07:43:24.689Z,68.20
2018-04-27T07:45:52.634Z,67.60
2018-04-27T07:48:20.156Z,67.60
2018-04-27T07:50:47.672Z,67.00
2018-04-27T07:53:15.201Z,67.60
2018-04-27T07:55:42.704Z,66.60
2018-04-27T07:58:10.231Z,66.70
2018-04-27T08:00:38.437Z,65.70
2018-04-27T08:03:06.096Z,65.70
2018-04-27T08:05:33.589Z,65.50
2018-04-27T08:08:01.113Z,65.60
2018-04-27T08:10:28.604Z,64.30
2018-04-27T08:12:56.165Z,64.20
2018-04-27T08:15:23.686Z,63.20
2018-04-27T08:17:51.238Z,63.70
2018-04-27T08:20:19.561Z,63.10
2018-04-27T08:22:47.472Z,62.50
2018-04-27T08:25:14.993Z,62.50
2018-04-27T08:27:42.540Z,63.20
2018-04-27T08:30:10.453Z,63.70
2018-04-27T08:32:38.051Z,63.70
2018-04-27T08:35:05.669Z,64.20
2018-04-27T08:37:33.305Z,62.80
2018-04-27T08:40:00.829Z,61.70
2018-04-27T08:42:28.731Z,62.30
2018-04-27T08:44:56.296Z,62.30
2018-04-27T08:47:23.869Z,61.90
2018-04-27T08:49:51.630Z,61.10
2018-04-27T08:52:19.137Z,61.40
2018-04-27T08:54:47.060Z,61.80
2018-04-27T08:57:14.569Z,61.80
2018-04-27T08:59:42.089Z,61.00
2018-04-27T09:02:09.712Z,61.20
2018-04-27T09:04:37.359Z,61.20
2018-04-27T09:07:04.865Z,62.80
2018-04-27T09:09:32.461Z,62.30
2018-04-27T09:12:00.118Z,61.80
2018-04-27T09:14:27.653Z,62.10
2018-04-27T09:16:55.553Z,61.80
2018-04-27T09:19:23.073Z,61.80
2018-04-27T09:21:50.577Z,61.30
2018-04-27T09:24:18.169Z,61.20
2018-04-27T09:26:45.684Z,60.60
2018-04-27T09:29:13.297Z,60.80
2018-04-27T09:31:40.982Z,60.30
2018-04-27T09:34:08.516Z,57.60
2018-04-27T09:36:36.449Z,60.30
2018-04-27T09:39:03.964Z,60.40
2018-04-27T09:41:31.626Z,61.20
2018-04-27T09:43:59.126Z,60.20
2018-04-27T09:46:26.650Z,61.10
2018-04-27T09:48:54.707Z,60.00
2018-04-27T09:51:22.278Z,59.00
2018-04-27T09:53:49.799Z,59.40
2018-04-27T09:56:17.362Z,60.40
2018-04-27T09:58:44.885Z,59.60
2018-04-27T10:01:12.803Z,58.10
2018-04-27T10:03:40.308Z,58.10
2018-04-27T10:06:07.832Z,57.20
2018-04-27T10:08:35.336Z,57.30
2018-04-27T10:11:02.861Z,58.90
2018-04-27T10:13:30.363Z,58.60
2018-04-27T10:15:57.902Z,58.70
2018-04-27T10:18:25.890Z,58.90
2018-04-27T10:20:53.430Z,58.30
2018-04-27T10:23:20.936Z,59.10
2018-04-27T10:25:48.459Z,59.50
2018-04-27T10:28:16.124Z,58.90
2018-04-27T10:30:43.888Z,58.40
2018-04-27T10:33:11.417Z,59.20
2018-04-27T10:35:38.933Z,58.20
2018-04-27T10:38:06.558Z,59.60
2018-04-27T10:40:34.059Z,58.50
2018-04-27T10:43:02.144Z,57.00
2018-04-27T10:45:29.597Z,57.00
2018-04-27T10:47:57.388Z,57.80
2018-04-27T10:50:24.901Z,57.70
2018-04-27T10:52:52.835Z,60.10
2018-04-27T10:55:20.359Z,60.10
2018-04-27T10:57:48.029Z,61.60
2018-04-27T11:00:15.667Z,61.80
2018-04-27T11:02:44.052Z,63.90
2018-04-27T11:05:11.577Z,64.60
2018-04-27T11:07:39.272Z,64.80
2018-04-27T11:10:06.835Z,64.40
2018-04-27T11:12:34.339Z,64.70
2018-04-27T11:15:02.045Z,64.50
2018-04-27T11:17:29.566Z,65.20
2018-04-27T11:19:57.096Z,64.90
2018-04-27T11:22:24.592Z,65.70
2018-04-27T11:24:52.109Z,65.50
2018-04-27T11:27:19.613Z,65.60
2018-04-27T11:29:47.137Z,65.70
2018-04-27T11:32:14.657Z,64.80
2018-04-27T11:34:42.180Z,66.00
2018-04-27T11:37:09.697Z,66.60
2018-04-27T11:39:37.230Z,65.40
2018-04-27T11:42:04.789Z,66.10
2018-04-27T11:44:32.402Z,65.30
2018-04-27T11:46:59.917Z,65.80
2018-04-27T11:49:27.444Z,66.30
2018-04-27T11:51:54.958Z,67.00
2018-04-27T11:54:22.485Z,66.70
2018-04-27T11:56:50.012Z,66.80
2018-04-27T11:59:17.544Z,66.80
2018-04-27T12:01:45.063Z,67.30
2018-04-27T12:04:12.966Z,67.30
2018-04-27T12:06:40.521Z,67.30
2018-04-27T12:09:08.061Z,66.60
2018-04-27T12:11:35.776Z,67.50
2018-04-27T12:14:03.309Z,66.90
2018-04-27T12:16:30.836Z,67.00
2018-04-27T12:18:58.354Z,66.60
2018-04-27T12:21:25.878Z,67.20
2018-04-27T12:23:53.388Z,67.50
2018-04-27T12:26:20.930Z,66.80
2018-04-27T12:28:48.842Z,67.50
2018-04-27T12:31:16.401Z,67.50
2018-04-27T12:33:43.894Z,67.60
2018-04-27T12:36:11.425Z,66.90
2018-04-27T12:38:38.936Z,68.10
2018-04-27T12:41:06.465Z,68.00
2018-04-27T12:43:33.967Z,67.70
2018-04-27T12:46:01.498Z,66.80
2018-04-27T12:48:29.016Z,66.90
2018-04-27T12:50:56.542Z,66.50
2018-04-27T12:53:24.065Z,66.90
2018-04-27T12:55:51.753Z,66.70
2018-04-27T12:58:19.280Z,67.10
2018-04-27T13:00:47.181Z,67.50
2018-04-27T13:03:14.708Z,67.50
2018-04-27T13:05:42.224Z,67.00
2018-04-27T13:08:09.755Z,67.00
2018-04-27T13:10:37.258Z,66.10
2018-04-27T13:13:04.794Z,67.20
2018-04-27T13:15:32.302Z,67.10
2018-04-27T13:17:59.833Z,66.90
2018-04-27T13:20:27.337Z,66.70
2018-04-27T13:22:54.875Z,67.30
2018-04-27T13:25:22.381Z,67.10
2018-04-27T13:27:50.082Z,67.00
2018-04-27T13:30:17.605Z,66.70
2018-04-27T13:32:45.533Z,66.10
2018-04-27T13:35:13.039Z,66.10
2018-04-27T13:37:40.549Z,66.10
2018-04-27T13:40:08.044Z,67.00
2018-04-27T13:42:35.986Z,67.20
2018-04-27T13:45:03.510Z,67.20
2018-04-27T13:47:31.021Z,66.50
2018-04-27T13:49:58.939Z,66.90
2018-04-27T13:52:26.457Z,66.90
2018-04-27T13:54:53.977Z,66.80
2018-04-27T13:57:21.557Z,66.70
2018-04-27T13:59:49.023Z,66.50
2018-04-27T14:02:16.622Z,65.80
2018-04-27T14:04:44.147Z,66.00
2018-04-27T14:07:12.656Z,66.00
2018-04-27T14:09:40.251Z,66.30
2018-04-27T14:12:07.714Z,66.10
2018-04-27T14:14:35.245Z,66.50
2018-04-27T14:17:02.773Z,66.20
2018-04-27T14:19:30.295Z,66.30
2018-04-27T14:21:57.798Z,66.00
2018-04-27T14:24:25.339Z,65.80
2018-04-27T14:26:52.958Z,65.30
2018-04-27T14:29:21.353Z,65.70
2018-04-27T14:31:48.886Z,65.70
2018-04-27T14:34:16.413Z,65.70
2018-04-27T14:36:43.933Z,66.00
2018-04-27T14:39:11.449Z,65.50
2018-04-27T14:41:38.978Z,65.60
2018-04-27T14:44:06.698Z,65.90
2018-04-27T14:46:34.290Z,65.90
2018-04-27T14:49:01.767Z,66.30
2018-04-27T14:51:29.316Z,65.80
2018-04-27T14:53:57.221Z,66.10
2018-04-27T14:56:24.774Z,66.10
2018-04-27T14:58:52.277Z,66.10
2018-04-27T15:01:19.811Z,65.90
2018-04-27T15:03:47.321Z,65.50
2018-04-27T15:06:14.862Z,66.30
2018-04-27T15:08:42.765Z,66.50
2018-04-27T15:11:10.281Z,66.50
2018-04-27T15:13:37.818Z,66.10
2018-04-27T15:16:05.333Z,66.00
2018-04-27T15:18:32.853Z,65.60
2018-04-27T15:21:00.737Z,66.20
2018-04-27T15:23:28.258Z,66.20
2018-04-27T15:25:55.773Z,65.90
2018-04-27T15:28:23.304Z,66.30
2018-04-27T15:30:50.809Z,65.70
2018-04-27T15:33:18.330Z,65.80
2018-04-27T15:35:45.846Z,66.10
2018-04-27T15:38:13.367Z,66.60
2018-04-27T15:40:40.996Z,66.70
2018-04-27T15:43:08.655Z,65.90
2018-04-27T15:45:36.181Z,65.90
2018-04-27T15:48:04.103Z,65.90
2018-04-27T15:50:31.610Z,65.90
2018-04-27T15:52:59.111Z,65.90
2018-04-27T15:55:26.636Z,65.90
2018-04-27T15:57:54.607Z,66.50
2018-04-27T16:00:22.139Z,66.20
2018-04-27T16:02:49.666Z,66.00
2018-04-27T16:05:17.180Z,66.50
2018-04-27T16:07:45.533Z,66.60
2018-04-27T16:10:13.096Z,66.20
2018-04-27T16:12:40.601Z,66.20
2018-04-27T16:15:08.185Z,66.20
2018-04-27T16:17:35.701Z,66.30
2018-04-27T16:20:03.334Z,66.10
2018-04-27T16:22:30.849Z,65.90
2018-04-27T16:24:58.926Z,65.80
2018-04-27T16:27:26.849Z,66.00
2018-04-27T16:29:54.349Z,66.00
2018-04-27T16:32:21.898Z,66.30
2018-04-27T16:34:49.904Z,66.30
2018-04-27T16:37:17.566Z,66.30
2018-04-27T16:39:45.211Z,66.90
2018-04-27T16:42:12.737Z,67.00
2018-04-27T16:44:40.632Z,67.70
2018-04-27T16:47:08.228Z,67.70
2018-04-27T16:49:35.748Z,67.40
2018-04-27T16:52:03.449Z,67.30
2018-04-27T16:54:31.049Z,67.50
2018-04-27T16:56:58.533Z,67.60
2018-04-27T16:59:26.063Z,67.80
2018-04-27T17:01:53.585Z,67.60
2018-04-27T17:04:21.100Z,67.70
2018-04-27T17:06:48.643Z,67.70
2018-04-27T17:09:16.153Z,67.70
2018-04-27T17:11:44.071Z,67.70
2018-04-27T17:14:11.819Z,67.70
2018-04-27T17:16:39.353Z,67.70
2018-04-27T17:19:06.865Z,67.80
2018-04-27T17:21:34.407Z,68.30
2018-04-27T17:24:01.919Z,68.50
2018-04-27T17:26:29.842Z,68.90
2018-04-27T17:28:57.381Z,68.90
2018-04-27T17:31:24.889Z,68.80
2018-04-27T17:33:52.812Z,69.10
2018-04-27T17:36:20.318Z,69.20
2018-04-27T17:38:47.843Z,69.60
2018-04-27T17:41:15.365Z,69.80
2018-04-27T17:43:42.883Z,70.00
2018-04-27T17:46:10.581Z,70.20
2018-04-27T17:48:38.097Z,70.40
2018-04-27T17:51:05.677Z,70.80
2018-04-27T17:53:33.197Z,70.90
2018-04-27T17:56:01.089Z,71.30
2018-04-27T17:58:28.862Z,71.30
2018-04-27T18:00:56.365Z,71.50
2018-04-27T18:03:23.874Z,71.60
2018-04-27T18:05:51.406Z,71.80
2018-04-27T18:08:18.926Z,72.30
2018-04-27T18:10:46.544Z,72.40
2018-04-27T18:13:14.055Z,72.70
2018-04-27T18:15:41.973Z,73.40
2018-04-27T18:18:09.488Z,73.50
2018-04-27T18:20:37.073Z,73.40
2018-04-27T18:23:04.605Z,73.90
2018-04-27T18:25:32.183Z,74.20
2018-04-27T18:27:59.745Z,74.20
2018-04-27T18:30:27.279Z,74.30
2018-04-27T18:32:54.797Z,74.40
2018-04-27T18:35:22.325Z,74.70
2018-04-27T18:37:49.828Z,74.90
2018-04-27T18:40:17.751Z,75.40
2018-04-27T18:42:45.284Z,75.40
2018-04-27T18:45:12.800Z,75.60
2018-04-27T18:47:40.695Z,75.90
2018-04-27T18:50:08.230Z,75.90
2018-04-27T18:52:36.121Z,76.30
2018-04-27T18:55:03.874Z,76.30
2018-04-27T18:57:31.436Z,76.80
2018-04-27T18:59:58.940Z,77.00
2018-04-27T19:02:26.564Z,77.10
2018-04-27T19:04:54.075Z,77.30
2018-04-27T19:07:22.333Z,77.40
2018-04-27T19:09:49.838Z,77.60
2018-04-27T19:12:17.397Z,78.10
2018-04-27T19:14:45.058Z,78.20
2018-04-27T19:17:14.493Z,78.50
2018-04-27T19:19:42.873Z,78.60
2018-04-27T19:22:10.395Z,78.70
2018-04-27T19:24:38.645Z,78.80
2018-04-27T19:27:06.177Z,78.90
2018-04-27T19:29:33.739Z,79.10
2018-04-27T19:32:01.254Z,79.20
2018-04-27T19:34:28.779Z,79.20
2018-04-27T19:36:56.332Z,79.20
2018-04-27T19:39:23.892Z,79.60
2018-04-27T19:41:51.516Z,79.60
2018-04-27T19:44:19.150Z,79.80
2018-04-27T19:46:46.863Z,79.80
2018-04-27T19:49:16.063Z,79.90
2018-04-27T19:51:43.600Z,80.00
2018-04-27T19:54:11.275Z,80.00
2018-04-27T19:56:38.928Z,80.10
2018-04-27T19:59:06.547Z,80.30
2018-04-27T20:01:34.013Z,80.40
2018-04-27T20:04:01.708Z,80.80
2018-04-27T20:06:29.237Z,80.60
2018-04-27T20:08:57.169Z,81.00
2018-04-27T20:11:24.807Z,81.00
2018-04-27T20:13:52.264Z,80.90
2018-04-27T20:16:31.639Z,80.90
2018-04-27T20:18:59.160Z,80.90
2018-04-27T20:21:26.655Z,80.90
2018-04-27T20:23:54.578Z,80.90
2018-04-27T20:26:22.113Z,80.90
2018-04-27T20:28:50.429Z,80.90
2018-04-27T20:31:17.937Z,80.80
2018-04-27T20:33:45.474Z,80.80
2018-04-27T20:36:12.990Z,80.80
2018-04-27T20:38:40.553Z,80.60
2018-04-27T20:41:18.005Z,80.60
2018-04-27T20:43:49.031Z,80.90
2018-04-27T20:46:17.509Z,81.00
2018-04-27T20:48:45.028Z,81.20
2018-04-27T20:51:12.964Z,81.40
2018-04-27T20:53:54.860Z,81.40
2018-04-27T20:56:22.408Z,81.50
2018-04-27T20:58:49.955Z,81.50
2018-04-27T21:01:17.472Z,81.50
2018-04-27T21:03:44.983Z,81.50
2018-04-27T21:06:12.517Z,81.60
2018-04-27T21:08:40.144Z,81.60
2018-04-27T21:11:07.679Z,81.50
2018-04-27T21:13:35.584Z,81.60
2018-04-27T21:16:03.174Z,81.60
2018-04-27T21:18:30.679Z,81.70
2018-04-27T21:20:58.193Z,81.70
2018-04-27T21:23:26.144Z,81.70
2018-04-27T21:25:53.678Z,81.50
2018-04-27T21:28:21.975Z,81.60
2018-04-27T21:30:49.485Z,81.50
2018-04-27T21:33:17.019Z,81.40
2018-04-27T21:35:49.625Z,81.80
2018-04-27T21:38:46.097Z,81.80
2018-04-27T21:41:24.797Z,81.70
2018-04-27T21:43:52.444Z,81.60
2018-04-27T21:46:24.881Z,81.70
2018-04-27T21:48:52.417Z,82.00
2018-04-27T21:54:18.499Z,82.60
2018-04-27T21:56:54.581Z,82.70
2018-04-27T21:59:24.718Z,82.70
2018-04-27T22:01:52.220Z,82.70
2018-04-27T22:04:21.831Z,82.80
2018-04-27T22:06:49.330Z,82.80
2018-04-27T22:09:16.857Z,82.80
2018-04-27T22:11:45.086Z,82.80
2018-04-27T22:14:30.817Z,82.60
2018-04-27T22:17:03.849Z,82.60
2018-04-27T22:19:31.529Z,82.60
2018-04-27T22:21:59.189Z,82.60
2018-04-27T22:24:27.442Z,82.50
2018-04-27T22:27:00.465Z,82.90
2018-04-27T22:29:28.974Z,83.00
2018-04-27T22:31:59.672Z,83.10
2018-04-27T22:34:30.825Z,83.30
2018-04-27T22:36:59.210Z,83.30
2018-04-27T22:39:50.185Z,83.30
2018-04-27T22:42:27.710Z,83.30
2018-04-27T22:44:56.022Z,83.00
2018-04-27T22:47:28.210Z,83.10
2018-04-27T22:49:55.873Z,83.20
2018-04-27T22:52:23.375Z,83.50
2018-04-27T22:54:51.809Z,83.30
2018-04-27T22:57:22.813Z,83.50
2018-04-27T22:59:51.672Z,83.50
2018-04-27T23:02:20.612Z,83.50
2018-04-27T23:04:49.769Z,83.50
2018-04-27T23:07:40.200Z,83.50
2018-04-27T23:10:07.728Z,83.70
2018-04-27T23:12:36.539Z,83.90
2018-04-27T23:15:06.755Z,83.90
2018-04-27T23:17:34.315Z,83.80
2018-04-27T23:20:03.457Z,83.90
2018-04-27T23:25:33.627Z,83.90
2018-04-27T23:28:01.153Z,83.90
2018-04-27T23:30:32.277Z,83.90
2018-04-27T23:32:59.806Z,84.00
2018-04-27T23:35:27.449Z,84.10
2018-04-27T23:37:54.980Z,84.10
2018-04-27T23:40:22.881Z,84.00
2018-04-27T23:42:50.405Z,84.00
2018-04-27T23:45:17.913Z,84.00
2018-04-27T23:47:48.221Z,84.00
2018-04-27T23:50:19.325Z,84.30
2018-04-27T23:52:46.852Z,84.30
2018-04-27T23:55:15.209Z,84.40
2018-04-27T23:57:42.730Z,84.50
